Record high temperature 38.5°C Record low temperature -6.1°C Record high gust 94.9 km/h Record high average 70.9 km/h Record daily rain 58.2 mm Record low windchill -9.9°C Record high barometer 1045.9 hPa Record low barometer 985.2 hPa
Daily high pressure 1012.6 hPa Daily low pressure 1011.4 hPa Daily low windchill 21.1°C Daily high heat index 26.4°C Daily high gust speed 8.0 kmh NW Daily high average speed 7.3 kmh NW
Stazione meteo Crema centro
ULTIMO RILEVAMENTO ALLE ORE: 09:15 GIORNO: 30 Luglio 2021 prossimo aggiornamento ore: 09:20
Tempo presenteSunny/Dry Temperatura attuale 25.7°C (78.2°F) (Indice calore 27.0°C ), temperatura apparente 28.6°C , Apparent temp solar 33.4°C
Temperatura massima (da mezzanotte)26.4°C alle ore: 00:00 Temperatura minima (da mezzanotte)21.1°C alle ore: 05:27
Forza media vento (dieci minuti)0.6 kmh (0.3 kts) Direzione vento (dieci minuti)NW (315°)
Indice calore 27.0°C Massima forza (ultima ora)8.0 kmh (4.3 kts) alle ore: 08:27
Massima forza (da mezzanotte)8.0 kmh (4.3 kts) alle ore: 08:27 Massimo vento 1 minuto (da mezzanotte)7.3 kmh (3.9 kts) alle ore: 08:28
Pioggia (ultima ora)0.0 mm Pioggia (da mezzanotte)0.0 mm (0.00 in.)---
Pioggia Questo mese 8.1 mm (0.32 in.) Pioggia Questo anno 331.0 mm (13.03 in.)
Massima pioggia per minuto (ultima ora)0.0 mm/min Massima pioggia per ora (ultime 6 ore)0.0 mm/ore
Pioggia di ieri 0.0 mm DewPoint 19.8°C (Wet Bulb :21.8°C )
Umidita 70 %, Humidex 33.1°C Pressione S.L.M.1012.6 hPa (QNH 1012.6 hPa
Variazione pressione +0.5 hPa (ultima ora) Tendenza (ultime 1 ore)Aumento slowly
Variazione pressione (ultime 12 ore)+0.9 hPa Variazione pressione (ultime 6 ore)+0.9 hPa
Current Solar 427 W/mē
Maximum solar (da mezzanotte) 427 W/mē Minimum solar (da mezzanotte)0 W/mē
Current 02:06 hours of sunshine today, current sky: Sunny
Sunshine hours for the year: 1158:43 hrs Sunshine hours for the month: 205:09 hrs
Current evapotranspiration rate 1.2 mm per day. Yesterday's reading 5.1

Questa pagina e` aggiornata con i dati della stazione meteo DAVIS VP Premere Reload o Refresh per facilitare la lettura dei dati aggiornati.

Status report of weather station: IK2CHZ - Crema meteo



Weather report/warning/Metars

Milano / Linate, Italy (LIML) 45-26N 009-17E 103M
Jul 30, 2021 - 02:50 AM EDT / 2021.07.30 0650 UTC
Wind: from the E (090 degrees) at 3 MPH (3 KT) (direction variable):0
Visibility: greater than 7 mile(s):0
Temperature: 77 F (25 C)
Dew Point: 64 F (18 C)
Relative Humidity: 65%
Pressure (altimeter): 29.91 in. Hg (1013 hPa)
ob: LIML 300650Z 09003KT 010V120 CAVOK 25/18 Q1013 NOSIG
cycle: 7
Bergamo / Orio Al Serio, Italy (LIME) 45-40N 009-42E 237M
Jul 30, 2021 - 02:50 AM EDT / 2021.07.30 0650 UTC
Wind: Variable at 1 MPH (1 KT):0
Visibility: greater than 7 mile(s):0
Sky conditions: partly cloudy
Temperature: 75 F (24 C)
Dew Point: 64 F (18 C)
Relative Humidity: 69%
Pressure (altimeter): 29.91 in. Hg (1013 hPa)
ob: LIME 300650Z VRB01KT 9999 FEW040 SCT060 24/18 Q1013 NOSIG
cycle: 7
Piacenza, Italy (LIMS) 44-55N 009-44E 138M
Jul 30, 2021 - 02:55 AM EDT / 2021.07.30 0655 UTC
Wind: from the WNW (300 degrees) at 3 MPH (3 KT):0
Visibility: greater than 7 mile(s):0
Temperature: 75 F (24 C)
Dew Point: 69 F (21 C)
Relative Humidity: 83%
Pressure (altimeter): 29.88 in. Hg (1012 hPa)
ob: LIMS 300655Z 30003KT CAVOK 24/21 Q1012
cycle: 7